Meath Environmental Platform

Observations for Trim Patrick St

Time AQI Temp °C Hum % Pres Pa CO μg/m³ H₂S μg/m³ NO μg/m³ NO₂ μg/m³ O₃ μg/m³ SO₂ μg/m³ PM1 μg/m³ PM2.5 μg/m³ PM10 μg/m³
Sunday 2 August 2026
19:14 3 19.2 59 73,286 0 19.52 1.18 55.17 45.74 3.93 5.43 10.28 11.31
19:13 3 19.2 60 73,194 0 19.47 1.16 44.03 43.84 4.21 3.71 8.02 8.83
19:12 3 19.3 59 73,109 0 21.36 1.14 53.95 48.01 4.76 3.71 8.06 8.87
19:11 3 19.3 59 72,990 0 20.44 1.11 55.53 50.26 4.65 3.71 9.55 10.5
19:10 3 19.3 59 72,897 0 19.23 1.14 49.26 37.4 4.28 4.57 8.85 9.74
19:09 3 19.3 59 72,772 0 20.49 1.11 53.99 52.04 5 5.43 9.57 10.52
19:08 3 19.3 59 72,642 0 21.49 1.13 53.65 40.92 4.95 3.71 8.85 9.74
19:07 3 19.4 58 72,467 0 22.65 1.12 57.57 42.33 4.86 4.57 8.86 9.74
19:06 3 19.4 58 72,263 0 21.18 1.16 51.65 46.08 4.87 4.57 9.63 10.59
19:05 3 19.4 58 72,088 0 20.34 1.16 59.21 44.78 4.35 4.57 10.38 11.42
19:04 3 19.5 58 71,943 0 21.73 1.16 56.02 33.91 5.87 4.57 9.66 10.63
19:03 3 19.5 58 71,782 0 21.28 1.15 54.46 45.12 4.62 3.71 8.18 9
19:02 3 19.5 57 71,603 0 22.55 1.16 59.64 52.65 5.54 2 6.69 7.36
19:01 3 19.5 57 71,385 0 21.02 1.15 50.18 48.25 4.68 2.86 8.22 9.05
19:00 3 19.6 57 71,218 0 20.79 1.17 55.71 45.54 4.96 3.71 8.99 9.89
18:59 3 19.6 56 71,054 0 18.74 1.17 49.38 38.61 4.04 3.71 9.01 9.91
18:58 3 19.7 56 70,898 0 21.66 1.15 48.13 39.65 4.94 4.57 9.01 9.91
18:57 3 19.7 57 70,745 0 27.02 1.09 86.17 37.53 6.3 5.43 9.74 10.71
18:56 3 19.7 56 70,457 0 21.92 1.07 63.31 38.88 5.65 3.71 9.07 9.97
18:55 3 19.8 55 70,309 0 18.95 1.01 45.04 47.41 4.71 3.71 9.85 10.83